map of VLY home
Great Circle Mapper logo
VLY - Airport
Location
City:  Anglesey, Anglesey, Wales, United Kingdom
Near (Alt.):Holyhead
Name:Anglesey Airport/RAF Valley
Old (Alt.):Maes Awyr Môn
ICAO / IATA:EGOV / VLY

Details
Type:Airport (Aerodrome, Airfield)
Use:Military, International (customs port of entry)
Latitude:53°14'53"N (53.248097)
Longitude:4°32'07"W (-4.535338)
Datum:WGS 1984
Elevation:37 ft (11 m)
Runways:3
Longest:7513 × 151 ft (2290 × 46 m), paved

Time
Time Zone:UTC+0 (DST+1)
Local Time:

Weather
METAR:EGOV 220250Z 32010KT 9999 FEW020 SCT050 12/09 Q1009 BLU

Related Locations
Nearby:
Farthest:SZS: 11886 mi / 19129 km
Ryan's Creek, Stewart Island, NZ

Find:

   beyond  
but within

Other Information
Maps:
NOTAMs:
Links:
Sources:

  
flag of United Kingdom
flag of Wales
  

Airport Diagram

Airport diagram for VLY

Airport diagram (OBSOLETE) from NGA

Sectional Chart

Flight Planning
at skyvector.com

Satellite Image

Google Maps Satellite View

 

Copyright © 2004-2014 Karl L. Swartz. All rights reserved.
The Great Circle Mapper name and logo are trademarks of the Great Circle Mapper.
All other trademarks mentioned herein belong to their respective owners.
Please see credits for attibutions and further copyright information.

  Follow gcmap on Facebook Follow gcmap on Twitter

hCard Microformat

Geo Microformat